logo dgac
Domingo 25 de Febrero del 2018
Buscar por aerodromo o helipuerto
Ingrese nombre de aeródromo, localidad o designador OACI:
METAR del 25-02-2018 a las 12:00 UTC
METAR SCRD 251200Z 18004KT 9999 4500SW VCFG FEW002 BKN008 12/11 Q1017
Viento: dirección 180 grados, velocidad 4 nudos
Visibilidad: 10 km o más
Visibilidad: 4500 metros dirección Suroeste
En los alrededores, Niebla
Nubes: Escasa nubosidad a 200 pies sobre el nivel del aeródromo
Nubes: Nublado a 800 pies sobre el nivel del aeródromo
Temperatura: 12 °C
Rocío: 11 °C
Humedad_relativa: 94%
Presión: 1017 hPa
METAR del 24-02-2018 a las 23:00 UTC
METAR SCRD 242300Z 17008KT CAVOK 18/12 Q1017
Viento: dirección 170 grados, velocidad 8 nudos
Visibilidad: 10 km o más,
    sin nubes bajo los 5.000 pies o bajo del MSA (Mínimo de Seguridad del Aeródromo),
    sin cumulonimbus, y sin fenómenos de tiempo significativo en el aeródromo o alrededores
Temperatura: 18 °C
Rocío: 12 °C
Humedad_relativa: 68%
Presión: 1017 hPa
METAR del 24-02-2018 a las 22:00 UTC
METAR SCRD 242200Z 18010KT CAVOK 20/12 Q1017
Viento: dirección 180 grados, velocidad 10 nudos
Visibilidad: 10 km o más,
    sin nubes bajo los 5.000 pies o bajo del MSA (Mínimo de Seguridad del Aeródromo),
    sin cumulonimbus, y sin fenómenos de tiempo significativo en el aeródromo o alrededores
Temperatura: 20 °C
Rocío: 12 °C
Humedad_relativa: 60%
Presión: 1017 hPa
METAR del 24-02-2018 a las 21:00 UTC
METAR SCRD 242100Z 21010KT CAVOK 22/13 Q1017
Viento: dirección 210 grados, velocidad 10 nudos
Visibilidad: 10 km o más,
    sin nubes bajo los 5.000 pies o bajo del MSA (Mínimo de Seguridad del Aeródromo),
    sin cumulonimbus, y sin fenómenos de tiempo significativo en el aeródromo o alrededores
Temperatura: 22 °C
Rocío: 13 °C
Humedad_relativa: 57%
Presión: 1017 hPa
METAR del 24-02-2018 a las 21:00 UTC
METAR SCRD 242100Z 21010KT CAVOK 22/13 Q1017
Viento: dirección 210 grados, velocidad 10 nudos
Visibilidad: 10 km o más,
    sin nubes bajo los 5.000 pies o bajo del MSA (Mínimo de Seguridad del Aeródromo),
    sin cumulonimbus, y sin fenómenos de tiempo significativo en el aeródromo o alrededores
Temperatura: 22 °C
Rocío: 13 °C
Humedad_relativa: 57%
Presión: 1017 hPa
METAR del 24-02-2018 a las 20:00 UTC
METAR SCRD 242000Z 33007KT CAVOK 20/13 Q1017
Viento: dirección 330 grados, velocidad 7 nudos
Visibilidad: 10 km o más,
    sin nubes bajo los 5.000 pies o bajo del MSA (Mínimo de Seguridad del Aeródromo),
    sin cumulonimbus, y sin fenómenos de tiempo significativo en el aeródromo o alrededores
Temperatura: 20 °C
Rocío: 13 °C
Humedad_relativa: 64%
Presión: 1017 hPa
METAR del 24-02-2018 a las 19:00 UTC
METAR SCRD 241900Z 33010KT CAVOK 19/13 Q1018
Viento: dirección 330 grados, velocidad 10 nudos
Visibilidad: 10 km o más,
    sin nubes bajo los 5.000 pies o bajo del MSA (Mínimo de Seguridad del Aeródromo),
    sin cumulonimbus, y sin fenómenos de tiempo significativo en el aeródromo o alrededores
Temperatura: 19 °C
Rocío: 13 °C
Humedad_relativa: 68%
Presión: 1018 hPa
METAR del 24-02-2018 a las 19:00 UTC
METAR SCRD 241900Z 33010KT CAVOK 19/13 Q1018
Viento: dirección 330 grados, velocidad 10 nudos
Visibilidad: 10 km o más,
    sin nubes bajo los 5.000 pies o bajo del MSA (Mínimo de Seguridad del Aeródromo),
    sin cumulonimbus, y sin fenómenos de tiempo significativo en el aeródromo o alrededores
Temperatura: 19 °C
Rocío: 13 °C
Humedad_relativa: 68%
Presión: 1018 hPa
METAR del 24-02-2018 a las 18:00 UTC
METAR SCRD 241800Z 30008KT 9999 FEW012 19/13 Q1018
Viento: dirección 300 grados, velocidad 8 nudos
Visibilidad: 10 km o más
Nubes: Escasa nubosidad a 1200 pies sobre el nivel del aeródromo
Temperatura: 19 °C
Rocío: 13 °C
Humedad_relativa: 68%
Presión: 1018 hPa
METAR del 24-02-2018 a las 17:00 UTC
METAR SCRD 241700Z 29006KT 9999 FEW013 19/13 Q1018
Viento: dirección 290 grados, velocidad 6 nudos
Visibilidad: 10 km o más
Nubes: Escasa nubosidad a 1300 pies sobre el nivel del aeródromo
Temperatura: 19 °C
Rocío: 13 °C
Humedad_relativa: 68%
Presión: 1018 hPa